createdAt,value
2023-02-06T00:01:38.980Z,3.28
2023-02-06T00:04:06.504Z,3.38
2023-02-06T00:06:34.482Z,3.50
2023-02-06T00:09:02.391Z,3.78
2023-02-06T00:11:29.926Z,3.55
2023-02-06T00:16:30.285Z,4.22
2023-02-06T00:18:58.985Z,4.07
2023-02-06T00:21:29.298Z,3.55
2023-02-06T00:23:59.559Z,3.95
2023-02-06T00:26:27.352Z,4.10
2023-02-06T00:28:55.153Z,3.92
2023-02-06T00:31:22.662Z,3.60
2023-02-06T00:33:50.182Z,4.45
2023-02-06T00:38:45.155Z,3.97
2023-02-06T00:43:41.106Z,3.72
2023-02-06T00:46:08.833Z,3.58
2023-02-06T00:48:37.737Z,3.70
2023-02-06T00:51:05.415Z,3.55
2023-02-06T00:53:32.976Z,4.85
2023-02-06T00:58:27.805Z,3.47
2023-02-06T01:00:55.475Z,4.20
2023-02-06T01:03:24.086Z,3.67
2023-02-06T01:05:51.540Z,3.95
2023-02-06T01:13:14.355Z,3.72
2023-02-06T01:15:41.916Z,3.65
2023-02-06T01:18:09.585Z,3.47
2023-02-06T01:20:37.294Z,3.70
2023-02-06T01:23:04.892Z,3.47
2023-02-06T01:25:32.585Z,3.55
2023-02-06T01:28:00.105Z,3.47
2023-02-06T01:32:57.010Z,3.67
2023-02-06T01:45:26.110Z,3.35
2023-02-06T01:48:08.682Z,3.53
2023-02-06T01:50:39.837Z,2.78
2023-02-06T01:53:10.414Z,3.65
2023-02-06T01:55:41.813Z,3.17
2023-02-06T01:58:13.284Z,3.38
2023-02-06T02:00:40.954Z,3.40
2023-02-06T02:03:08.408Z,3.55
2023-02-06T02:08:18.437Z,3.20
2023-02-06T02:10:46.508Z,3.45
2023-02-06T02:13:13.902Z,3.00
2023-02-06T02:18:53.460Z,3.38
2023-02-06T02:21:53.500Z,3.88
2023-02-06T02:24:33.971Z,4.18
2023-02-06T02:27:39.367Z,4.35
2023-02-06T02:30:13.203Z,3.53
2023-02-06T02:32:49.882Z,3.42
2023-02-06T02:35:36.327Z,4.68
2023-02-06T02:38:16.323Z,3.20
2023-02-06T02:41:05.904Z,4.63
2023-02-06T02:43:51.708Z,3.20
2023-02-06T02:46:37.855Z,3.53
2023-02-06T02:49:15.705Z,5.90
2023-02-06T02:51:43.938Z,3.40
2023-02-06T02:54:11.633Z,3.47
2023-02-06T02:56:39.777Z,3.15
2023-02-06T02:59:16.222Z,3.33
2023-02-06T03:01:56.196Z,3.42
2023-02-06T03:04:31.442Z,2.72
2023-02-06T03:07:38.441Z,3.03
2023-02-06T03:10:11.485Z,4.00
2023-02-06T03:12:48.796Z,3.90
2023-02-06T03:15:29.937Z,3.90
2023-02-06T03:18:09.337Z,3.22
2023-02-06T03:20:43.279Z,3.47
2023-02-06T03:23:15.832Z,2.97
2023-02-06T03:25:45.435Z,3.35
2023-02-06T03:28:25.570Z,4.40
2023-02-06T03:30:57.117Z,3.20
2023-02-06T03:33:36.393Z,3.28
2023-02-06T03:36:05.443Z,3.70
2023-02-06T03:38:33.368Z,2.83
2023-02-06T03:41:02.175Z,3.67
2023-02-06T03:43:30.652Z,3.35
2023-02-06T03:46:04.472Z,2.92
2023-02-06T03:48:41.013Z,3.30
2023-02-06T03:51:14.666Z,4.43
2023-02-06T03:53:45.449Z,3.40
2023-02-06T03:56:25.468Z,3.28
2023-02-06T03:58:53.104Z,3.33
2023-02-06T04:01:21.730Z,3.65
2023-02-06T04:03:49.922Z,3.38
2023-02-06T04:06:17.471Z,3.30
2023-02-06T04:08:45.013Z,3.67
2023-02-06T04:18:34.282Z,2.45
2023-02-06T04:21:06.908Z,2.90
2023-02-06T04:23:34.844Z,3.25
2023-02-06T04:26:02.363Z,3.08
2023-02-06T04:28:30.069Z,3.28
2023-02-06T04:30:57.549Z,3.58
2023-02-06T04:35:52.465Z,2.92
2023-02-06T04:38:19.969Z,2.92
2023-02-06T04:45:42.075Z,3.38
2023-02-06T04:48:09.616Z,2.88
2023-02-06T04:53:04.589Z,3.10
2023-02-06T04:57:59.265Z,2.80
2023-02-06T05:00:26.630Z,3.47
2023-02-06T05:05:21.329Z,2.60
2023-02-06T05:07:48.956Z,3.17
2023-02-06T05:12:43.969Z,2.92
2023-02-06T05:15:11.345Z,3.30
2023-02-06T05:17:38.964Z,3.30
2023-02-06T05:22:34.359Z,3.13
2023-02-06T05:27:29.242Z,2.90
2023-02-06T05:29:56.663Z,3.35
2023-02-06T05:34:51.273Z,2.72
2023-02-06T05:39:46.189Z,2.72
2023-02-06T05:52:02.489Z,3.70
2023-02-06T05:54:29.913Z,3.45
2023-02-06T05:59:27.516Z,3.08
2023-02-06T06:06:49.789Z,3.42
2023-02-06T06:11:44.783Z,3.20
2023-02-06T06:19:08.330Z,3.08
2023-02-06T06:21:36.029Z,3.70
2023-02-06T06:24:03.645Z,3.45
2023-02-06T06:26:31.545Z,4.05
2023-02-06T06:28:58.994Z,3.85
2023-02-06T06:33:54.340Z,3.63
2023-02-06T06:36:21.993Z,3.47
2023-02-06T06:38:49.446Z,3.72
2023-02-06T06:43:44.050Z,3.25
2023-02-06T06:51:07.074Z,3.30
2023-02-06T06:53:34.740Z,3.22
2023-02-06T06:56:04.264Z,3.60
2023-02-06T06:58:31.816Z,3.08
2023-02-06T07:00:59.459Z,4.22
2023-02-06T07:03:26.864Z,3.47
2023-02-06T07:18:11.807Z,3.30
2023-02-06T07:20:39.721Z,3.13
2023-02-06T07:23:07.338Z,3.88
2023-02-06T07:25:35.201Z,3.17
2023-02-06T07:29:58.100Z,4.65
2023-02-06T07:32:26.803Z,3.47
2023-02-06T07:34:54.218Z,5.18
2023-02-06T07:44:51.798Z,3.63
2023-02-06T07:47:19.351Z,3.40
2023-02-06T07:54:43.235Z,5.50
2023-02-06T07:57:10.794Z,4.40
2023-02-06T08:04:35.750Z,4.28
2023-02-06T08:07:05.005Z,4.38
2023-02-06T08:09:33.460Z,4.13
2023-02-06T08:12:01.019Z,4.10
2023-02-06T08:16:56.286Z,3.78
2023-02-06T08:19:23.840Z,4.05
2023-02-06T08:21:51.654Z,4.60
2023-02-06T08:24:19.253Z,4.90
2023-02-06T08:26:46.814Z,3.90
2023-02-06T08:31:42.808Z,4.45
2023-02-06T08:34:12.774Z,3.58
2023-02-06T08:36:43.183Z,4.28
2023-02-06T08:39:13.820Z,3.97
2023-02-06T08:41:43.645Z,4.50
2023-02-06T08:44:16.289Z,4.10
2023-02-06T08:46:46.001Z,4.45
2023-02-06T08:49:22.373Z,4.22
2023-02-06T08:51:50.487Z,4.50
2023-02-06T08:54:21.319Z,5.22
2023-02-06T08:56:50.125Z,4.35
2023-02-06T08:59:19.357Z,4.47
2023-02-06T09:01:49.200Z,4.38
2023-02-06T09:04:17.613Z,4.82
2023-02-06T09:06:49.047Z,4.63
2023-02-06T09:09:16.924Z,5.18
2023-02-06T09:11:44.690Z,4.75
2023-02-06T09:14:17.969Z,5.13
2023-02-06T09:16:45.677Z,6.50
2023-02-06T09:19:13.457Z,3.97
2023-02-06T09:21:41.305Z,5.15
2023-02-06T09:24:09.899Z,5.85
2023-02-06T09:26:53.480Z,5.30
2023-02-06T09:29:28.958Z,5.63
2023-02-06T09:31:57.612Z,4.38
2023-02-06T09:34:26.083Z,4.60
2023-02-06T09:36:54.764Z,4.80
2023-02-06T09:39:22.506Z,4.80
2023-02-06T09:41:56.832Z,5.40
2023-02-06T09:44:34.271Z,4.55
2023-02-06T09:47:37.213Z,5.43
2023-02-06T09:50:33.331Z,4.72
2023-02-06T09:53:37.178Z,5.45
2023-02-06T09:56:37.211Z,5.85
2023-02-06T09:59:49.793Z,5.00
2023-02-06T10:02:57.675Z,4.57
2023-02-06T10:05:40.859Z,5.43
2023-02-06T10:08:23.607Z,5.35
2023-02-06T10:10:55.111Z,4.63
2023-02-06T10:13:26.430Z,5.18
2023-02-06T10:16:00.480Z,5.65
2023-02-06T10:18:50.428Z,6.05
2023-02-06T10:21:42.835Z,5.55
2023-02-06T10:24:32.296Z,5.13
2023-02-06T10:27:03.855Z,4.97
2023-02-06T10:29:34.318Z,4.90
2023-02-06T10:32:31.947Z,4.88
2023-02-06T10:35:17.678Z,5.20
2023-02-06T10:38:25.942Z,4.57
2023-02-06T10:41:09.089Z,4.10
2023-02-06T10:44:01.019Z,4.88
2023-02-06T10:46:44.384Z,5.80
2023-02-06T10:49:19.888Z,5.07
2023-02-06T10:51:53.544Z,4.63
2023-02-06T10:54:25.407Z,5.22
2023-02-06T10:56:55.989Z,4.88
2023-02-06T10:59:33.997Z,5.57
2023-02-06T11:02:16.341Z,4.97
2023-02-06T11:04:54.172Z,4.32
2023-02-06T11:07:31.876Z,4.15
2023-02-06T11:09:59.616Z,4.28
2023-02-06T11:12:27.059Z,4.88
2023-02-06T11:14:57.911Z,4.88
2023-02-06T11:17:28.434Z,4.43
2023-02-06T11:20:03.167Z,4.93
2023-02-06T11:22:34.895Z,4.03
2023-02-06T11:25:20.663Z,5.82
2023-02-06T11:27:48.790Z,4.53
2023-02-06T11:30:32.223Z,4.15
2023-02-06T11:33:05.231Z,4.90
2023-02-06T11:35:40.402Z,4.53
2023-02-06T11:38:18.382Z,4.80
2023-02-06T11:41:06.004Z,4.95
2023-02-06T11:43:48.651Z,4.15
2023-02-06T11:46:24.609Z,4.95
2023-02-06T11:49:00.998Z,4.00
2023-02-06T11:51:46.901Z,4.10
2023-02-06T11:54:20.625Z,3.50
2023-02-06T11:57:03.865Z,4.35
2023-02-06T11:59:34.671Z,4.55
2023-02-06T12:02:22.277Z,4.90
2023-02-06T12:04:50.351Z,4.65
2023-02-06T12:07:33.770Z,3.75
2023-02-06T12:10:03.946Z,3.97
2023-02-06T12:12:35.209Z,5.35
2023-02-06T12:15:36.218Z,4.43
2023-02-06T12:18:09.394Z,3.90
2023-02-06T12:20:46.040Z,3.83
2023-02-06T12:23:37.247Z,4.53
2023-02-06T12:26:09.950Z,4.07
2023-02-06T12:29:00.288Z,4.22
2023-02-06T12:31:43.645Z,4.00
2023-02-06T12:34:16.314Z,3.13
2023-02-06T12:37:00.469Z,3.78
2023-02-06T12:39:32.850Z,3.97
2023-02-06T12:42:34.376Z,4.25
2023-02-06T12:45:17.406Z,4.22
2023-02-06T12:47:57.831Z,4.15
2023-02-06T12:50:33.689Z,4.03
2023-02-06T12:53:14.616Z,4.22
2023-02-06T12:55:55.070Z,3.28
2023-02-06T12:58:28.250Z,3.60
2023-02-06T13:01:29.998Z,3.60
2023-02-06T13:04:04.548Z,3.55
2023-02-06T13:06:54.048Z,3.60
2023-02-06T13:09:35.495Z,4.07
2023-02-06T13:12:16.566Z,3.53
2023-02-06T13:14:48.197Z,4.22
2023-02-06T13:17:22.835Z,4.05
2023-02-06T13:19:52.551Z,3.80
2023-02-06T13:22:20.297Z,4.22
2023-02-06T13:24:50.567Z,3.95
2023-02-06T13:27:26.064Z,4.03
2023-02-06T13:29:54.157Z,4.03
2023-02-06T13:32:31.632Z,4.22
2023-02-06T13:37:33.955Z,3.83
2023-02-06T13:40:26.808Z,3.65
2023-02-06T13:43:10.414Z,4.07
2023-02-06T13:45:44.420Z,4.40
2023-02-06T13:48:37.111Z,4.68
2023-02-06T13:51:32.605Z,4.03
2023-02-06T13:54:09.074Z,4.20
2023-02-06T13:57:00.677Z,3.78
2023-02-06T13:59:47.982Z,4.15
2023-02-06T14:02:31.194Z,4.53
2023-02-06T14:05:00.399Z,3.42
2023-02-06T14:07:48.277Z,3.47
2023-02-06T14:10:34.424Z,3.83
2023-02-06T14:13:29.880Z,4.20
2023-02-06T14:16:19.000Z,3.80
2023-02-06T14:19:11.697Z,4.00
2023-02-06T14:22:04.507Z,4.20
2023-02-06T14:24:35.029Z,4.40
2023-02-06T14:27:12.594Z,3.42
2023-02-06T14:29:43.234Z,3.25
2023-02-06T14:32:24.635Z,3.50
2023-02-06T14:35:16.744Z,4.22
2023-02-06T14:38:11.389Z,3.08
2023-02-06T14:40:42.761Z,3.28
2023-02-06T14:43:17.926Z,3.10
2023-02-06T14:46:05.491Z,3.47
2023-02-06T14:48:48.118Z,3.05
2023-02-06T14:51:34.208Z,3.25
2023-02-06T14:54:05.214Z,3.07
2023-02-06T14:56:34.284Z,3.00
2023-02-06T14:59:14.943Z,2.70
2023-02-06T15:01:46.824Z,3.88
2023-02-06T15:04:43.927Z,2.90
2023-02-06T15:07:22.056Z,2.83
2023-02-06T15:10:01.074Z,2.30
2023-02-06T15:12:30.230Z,2.88
2023-02-06T15:15:02.920Z,3.22
2023-02-06T15:17:32.026Z,2.80
2023-02-06T15:20:25.754Z,2.83
2023-02-06T15:23:11.585Z,2.75
2023-02-06T15:26:20.481Z,2.55
2023-02-06T15:28:48.368Z,2.60
2023-02-06T15:31:21.595Z,3.28
2023-02-06T15:33:55.745Z,3.15
2023-02-06T15:36:38.628Z,3.00
2023-02-06T15:39:09.634Z,3.45
2023-02-06T15:41:39.461Z,3.28
2023-02-06T15:44:21.844Z,3.53
2023-02-06T15:46:51.085Z,2.50
2023-02-06T15:49:34.061Z,2.75
2023-02-06T15:52:02.144Z,2.67
2023-02-06T15:54:29.920Z,3.05
2023-02-06T15:57:25.373Z,2.72
2023-02-06T15:59:53.045Z,2.60
2023-02-06T16:02:23.971Z,3.10
2023-02-06T16:04:53.297Z,3.45
2023-02-06T16:07:27.523Z,2.70
2023-02-06T16:10:13.887Z,2.53
2023-02-06T16:12:43.640Z,2.67
2023-02-06T16:15:31.985Z,3.10
2023-02-06T16:18:02.346Z,2.80
2023-02-06T16:20:37.459Z,2.92
2023-02-06T16:23:26.701Z,3.35
2023-02-06T16:26:05.062Z,2.35
2023-02-06T16:28:39.018Z,2.78
2023-02-06T16:31:06.928Z,2.63
2023-02-06T16:33:39.817Z,3.20
2023-02-06T16:36:07.874Z,2.40
2023-02-06T16:38:38.400Z,2.80
2023-02-06T16:41:38.272Z,3.08
2023-02-06T16:44:15.307Z,2.63
2023-02-06T16:46:43.774Z,2.75
2023-02-06T16:49:17.277Z,2.50
2023-02-06T16:51:52.143Z,3.05
2023-02-06T16:54:29.434Z,2.72
2023-02-06T16:59:47.737Z,3.17
2023-02-06T17:02:16.019Z,2.90
2023-02-06T17:04:43.962Z,2.95
2023-02-06T17:07:20.091Z,2.88
2023-02-06T17:09:48.887Z,2.97
2023-02-06T17:12:19.287Z,3.30
2023-02-06T17:14:47.033Z,3.15
2023-02-06T17:17:17.147Z,2.90
2023-02-06T17:19:45.641Z,3.53
2023-02-06T17:22:13.432Z,3.53
2023-02-06T17:24:42.561Z,3.28
2023-02-06T17:27:15.958Z,3.20
2023-02-06T17:29:46.252Z,3.20
2023-02-06T17:32:16.458Z,3.47
2023-02-06T17:34:43.893Z,3.83
2023-02-06T17:39:50.082Z,3.95
2023-02-06T17:42:17.849Z,4.20
2023-02-06T17:44:45.690Z,4.15
2023-02-06T17:47:13.125Z,4.20
2023-02-06T17:49:40.729Z,3.40
2023-02-06T17:54:35.871Z,3.60
2023-02-06T17:57:03.417Z,3.50
2023-02-06T17:59:30.995Z,4.00
2023-02-06T18:01:59.486Z,3.88
2023-02-06T18:04:28.358Z,3.60
2023-02-06T18:06:55.917Z,4.00
2023-02-06T18:09:23.521Z,3.75
2023-02-06T18:11:51.026Z,4.00
2023-02-06T18:14:18.548Z,4.03
2023-02-06T18:19:14.710Z,4.03
2023-02-06T18:24:09.453Z,3.95
2023-02-06T18:31:35.536Z,3.83
2023-02-06T18:34:07.951Z,4.20
2023-02-06T18:36:36.728Z,4.35
2023-02-06T18:39:05.517Z,3.33
2023-02-06T18:41:51.781Z,3.80
2023-02-06T18:44:19.381Z,4.10
2023-02-06T18:49:14.193Z,3.70
2023-02-06T18:54:10.187Z,3.83
2023-02-06T18:56:38.697Z,3.60
2023-02-06T18:59:06.738Z,4.28
2023-02-06T19:01:34.300Z,3.90
2023-02-06T19:04:01.840Z,4.07
2023-02-06T19:08:59.689Z,4.00
2023-02-06T19:11:27.612Z,4.97
2023-02-06T19:13:55.422Z,4.43
2023-02-06T19:16:23.018Z,4.50
2023-02-06T19:18:50.768Z,4.30
2023-02-06T19:21:21.232Z,4.18
2023-02-06T19:23:55.281Z,4.80
2023-02-06T19:26:24.225Z,5.30
2023-02-06T19:28:52.428Z,4.55
2023-02-06T19:31:26.190Z,5.82
2023-02-06T19:33:59.752Z,4.72
2023-02-06T19:36:28.952Z,4.60
2023-02-06T19:39:00.656Z,4.03
2023-02-06T19:41:30.529Z,4.38
2023-02-06T19:44:00.921Z,5.15
2023-02-06T19:46:28.678Z,4.82
2023-02-06T19:48:56.866Z,5.32
2023-02-06T19:51:30.082Z,4.70
2023-02-06T19:53:59.366Z,4.43
2023-02-06T19:56:38.330Z,4.60
2023-02-06T19:59:18.390Z,5.28
2023-02-06T20:01:50.410Z,5.35
2023-02-06T20:04:19.569Z,5.38
2023-02-06T20:06:47.417Z,5.50
2023-02-06T20:09:16.491Z,5.20
2023-02-06T20:11:44.028Z,6.07
2023-02-06T20:14:12.579Z,5.05
2023-02-06T20:16:42.007Z,5.80
2023-02-06T20:19:15.768Z,5.35
2023-02-06T20:21:47.194Z,5.30
2023-02-06T20:24:18.693Z,6.10
2023-02-06T20:26:47.002Z,6.90
2023-02-06T20:29:25.270Z,7.13
2023-02-06T20:31:53.868Z,6.53
2023-02-06T20:34:21.957Z,5.93
2023-02-06T20:36:50.644Z,5.50
2023-02-06T20:39:18.812Z,5.75
2023-02-06T20:41:49.460Z,5.85
2023-02-06T20:44:17.982Z,5.65
2023-02-06T20:46:46.216Z,6.65
2023-02-06T20:49:17.071Z,6.35
2023-02-06T20:51:44.869Z,7.00
2023-02-06T20:54:12.816Z,6.75
2023-02-06T20:56:40.583Z,6.93
2023-02-06T20:59:09.001Z,6.38
2023-02-06T21:01:36.547Z,7.63
2023-02-06T21:04:06.647Z,7.07
2023-02-06T21:06:36.693Z,7.45
2023-02-06T21:09:06.379Z,6.22
2023-02-06T21:11:37.106Z,6.85
2023-02-06T21:14:06.441Z,6.68
2023-02-06T21:16:35.242Z,7.03
2023-02-06T21:19:05.516Z,6.45
2023-02-06T21:21:33.774Z,6.38
2023-02-06T21:24:01.494Z,6.22
2023-02-06T21:26:29.223Z,7.88
2023-02-06T21:28:58.415Z,6.32
2023-02-06T21:31:34.164Z,6.25
2023-02-06T21:34:07.274Z,6.82
2023-02-06T21:36:36.574Z,6.53
2023-02-06T21:39:04.352Z,6.25
2023-02-06T21:41:32.819Z,6.07
2023-02-06T21:44:00.207Z,7.03
2023-02-06T21:48:59.053Z,7.00
2023-02-06T21:51:26.828Z,7.00
2023-02-06T21:53:54.310Z,6.97
2023-02-06T21:58:50.969Z,6.80
2023-02-06T22:01:30.041Z,6.38
2023-02-06T22:03:58.197Z,7.47
2023-02-06T22:06:27.071Z,7.22
2023-02-06T22:08:56.103Z,6.13
2023-02-06T22:11:25.398Z,6.75
2023-02-06T22:13:56.981Z,6.63
2023-02-06T22:16:25.515Z,7.35
2023-02-06T22:18:53.597Z,7.60
2023-02-06T22:21:24.005Z,7.95
2023-02-06T22:23:52.400Z,7.00
2023-02-06T22:26:21.142Z,9.25
2023-02-06T22:28:49.100Z,7.25
2023-02-06T22:31:22.670Z,7.90
2023-02-06T22:33:51.133Z,7.55
2023-02-06T22:36:22.897Z,8.88
2023-02-06T22:38:59.820Z,8.60
2023-02-06T22:41:28.765Z,8.57
2023-02-06T22:43:56.636Z,8.23
2023-02-06T22:46:32.194Z,7.78
2023-02-06T22:49:00.437Z,8.40
2023-02-06T22:51:28.703Z,8.75
2023-02-06T22:53:56.571Z,9.20
2023-02-06T22:56:34.903Z,8.10
2023-02-06T22:59:10.484Z,8.20
2023-02-06T23:01:44.152Z,8.13
2023-02-06T23:04:15.664Z,9.93
2023-02-06T23:06:44.330Z,8.85
2023-02-06T23:09:18.855Z,8.35
2023-02-06T23:11:47.264Z,8.90
2023-02-06T23:14:16.242Z,8.50
2023-02-06T23:16:44.680Z,8.48
2023-02-06T23:19:13.510Z,8.32
2023-02-06T23:21:43.215Z,8.48
2023-02-06T23:24:11.822Z,7.40
2023-02-06T23:26:42.992Z,8.10
2023-02-06T23:29:15.870Z,8.13
2023-02-06T23:31:45.191Z,8.15
2023-02-06T23:34:13.582Z,7.88
2023-02-06T23:36:41.480Z,7.93
2023-02-06T23:39:09.056Z,7.60
2023-02-06T23:41:36.509Z,8.52
2023-02-06T23:44:07.421Z,8.02
2023-02-06T23:46:37.203Z,8.05
2023-02-06T23:49:06.466Z,7.82
2023-02-06T23:51:35.279Z,7.65
2023-02-06T23:54:02.979Z,8.00
2023-02-06T23:56:31.752Z,8.23
2023-02-06T23:59:00.874Z,8.18
